Time;durP1;ratioP1;P1;durP2;ratioP2;P2;SDS_P1;SDS_P2;PMS_P1;PMS_P2;Temp;Humidity;BMP_temperature;BMP_pressure;BME280_temperature;BME280_humidity;BME280_pressure;Samples;Min_cycle;Max_cycle;Signal;HPM_P1;HPM_P2
2021/09/27 00:00:59;;;;;;;11.90;2.65;;;18.30;84.80;;;;;;5037659;28;20064;-77
2021/09/27 00:03:27;;;;;;;9.90;2.15;;;18.30;85.20;;;;;;5037612;28;20029;-78
2021/09/27 00:05:54;;;;;;;14.20;3.03;;;18.30;85.00;;;;;;5037983;28;20029;-77
2021/09/27 00:08:20;;;;;;;6.50;2.28;;;18.30;85.60;;;;;;5037796;28;20113;-77
2021/09/27 00:10:59;;;;;;;9.02;2.42;;;18.20;85.00;;;;;;5037419;28;20057;-78
2021/09/27 00:13:30;;;;;;;10.65;2.15;;;18.20;85.30;;;;;;5037371;28;20057;-78
2021/09/27 00:15:57;;;;;;;8.30;2.38;;;18.30;85.00;;;;;;5036213;28;20025;-77
2021/09/27 00:18:24;;;;;;;9.95;2.15;;;18.20;84.80;;;;;;5036025;28;20024;-78
2021/09/27 00:20:54;;;;;;;11.70;3.22;;;18.20;84.70;;;;;;5025730;28;20581;-79
2021/09/27 00:23:20;;;;;;;8.20;2.95;;;18.20;84.70;;;;;;5037222;28;20094;-79
2021/09/27 00:25:47;;;;;;;8.25;3.08;;;18.20;85.00;;;;;;5037432;28;20036;-78
2021/09/27 00:28:14;;;;;;;8.25;2.30;;;18.20;84.90;;;;;;5037344;28;20033;-78
2021/09/27 00:30:40;;;;;;;8.80;2.47;;;18.20;84.70;;;;;;5037366;28;20057;-77
2021/09/27 00:33:10;;;;;;;9.20;2.35;;;18.20;84.90;;;;;;5037301;28;20029;-77
2021/09/27 00:35:38;;;;;;;14.70;3.17;;;18.20;85.00;;;;;;5037156;28;20061;-78
2021/09/27 00:38:06;;;;;;;9.40;2.40;;;18.20;85.10;;;;;;5037172;28;20047;-77
2021/09/27 00:40:37;;;;;;;12.73;3.08;;;18.10;84.60;;;;;;5037665;28;20021;-78
2021/09/27 00:43:04;;;;;;;10.32;3.15;;;18.10;84.60;;;;;;5041269;28;20022;-77
2021/09/27 00:45:33;;;;;;;9.88;2.75;;;18.10;85.00;;;;;;5041615;28;20025;-77
2021/09/27 00:47:59;;;;;;;6.28;2.08;;;18.10;85.00;;;;;;5041123;28;20033;-77
2021/09/27 00:50:29;;;;;;;6.85;2.60;;;18.10;84.80;;;;;;5041445;28;20065;-77
2021/09/27 00:52:55;;;;;;;10.23;2.72;;;18.10;85.20;;;;;;5040885;28;20017;-77
2021/09/27 00:55:24;;;;;;;12.45;2.75;;;18.10;85.30;;;;;;5040852;28;20108;-77
2021/09/27 00:57:50;;;;;;;9.63;2.45;;;18.10;84.80;;;;;;5040946;28;20025;-77
2021/09/27 01:00:19;;;;;;;10.23;2.70;;;18.10;85.10;;;;;;5041178;28;20025;-77
2021/09/27 01:02:46;;;;;;;10.55;2.30;;;18.10;85.10;;;;;;5028320;28;20547;-77
2021/09/27 01:05:18;;;;;;;9.95;3.08;;;18.10;85.60;;;;;;5040866;28;20025;-76
2021/09/27 01:07:51;;;;;;;8.00;2.72;;;18.20;86.00;;;;;;5038617;28;20045;-77
2021/09/27 01:10:29;;;;;;;7.75;2.28;;;18.20;85.90;;;;;;5038674;28;20037;-77
2021/09/27 01:13:21;;;;;;;10.82;2.72;;;18.20;85.50;;;;;;5039492;28;20116;-77
2021/09/27 01:15:57;;;;;;;6.43;2.70;;;18.20;85.60;;;;;;5027554;28;20041;-78
2021/09/27 01:18:41;;;;;;;8.98;3.03;;;18.20;85.70;;;;;;5036455;28;20139;-77
2021/09/27 01:21:10;;;;;;;9.05;3.03;;;18.20;85.40;;;;;;5029875;28;20025;-77
2021/09/27 01:24:13;;;;;;;9.63;2.88;;;18.20;85.90;;;;;;5040254;28;20029;-76
2021/09/27 01:27:09;;;;;;;8.90;2.53;;;18.30;85.60;;;;;;5040518;28;20025;-78
2021/09/27 01:30:18;;;;;;;10.57;2.70;;;18.20;85.10;;;;;;5040452;28;20021;-77
2021/09/27 01:32:55;;;;;;;9.30;2.97;;;18.30;84.90;;;;;;5040336;28;20025;-77
2021/09/27 01:35:40;;;;;;;6.32;2.88;;;18.30;85.20;;;;;;5030758;28;20083;-77
2021/09/27 01:38:15;;;;;;;8.90;2.75;;;18.30;85.20;;;;;;5038965;28;20032;-77
2021/09/27 01:40:57;;;;;;;9.10;3.15;;;18.30;84.90;;;;;;5039904;28;20026;-80
2021/09/27 01:43:38;;;;;;;5.53;2.67;;;18.30;85.40;;;;;;5028529;28;20503;-77
2021/09/27 01:46:10;;;;;;;10.70;3.45;;;18.30;85.30;;;;;;5040157;28;20083;-78
2021/09/27 01:49:03;;;;;;;9.03;2.97;;;18.30;85.20;;;;;;5040321;28;20034;-76
2021/09/27 01:51:41;;;;;;;10.85;2.90;;;18.30;85.10;;;;;;5027816;28;20419;-77
2021/09/27 01:54:47;;;;;;;8.18;2.90;;;18.40;85.10;;;;;;5037692;28;20029;-78
2021/09/27 01:57:52;;;;;;;9.18;2.97;;;18.30;84.70;;;;;;5035234;28;20033;-78
2021/09/27 02:00:38;;;;;;;7.50;3.08;;;18.40;84.80;;;;;;5032801;28;20038;-77
2021/09/27 02:03:18;;;;;;;8.45;3.20;;;18.40;84.60;;;;;;5039652;28;20040;-78
2021/09/27 02:06:08;;;;;;;7.65;2.83;;;18.40;84.60;;;;;;5039757;28;20028;-77
2021/09/27 02:08:59;;;;;;;8.55;3.05;;;18.40;84.50;;;;;;5032968;28;20034;-77
2021/09/27 02:11:27;;;;;;;5.68;2.70;;;18.40;84.10;;;;;;5039984;28;20039;-77
2021/09/27 02:14:14;;;;;;;9.82;2.80;;;18.40;83.90;;;;;;5025341;28;20059;-78
2021/09/27 02:16:43;;;;;;;7.07;2.60;;;18.40;84.00;;;;;;5039455;28;20480;-77
2021/09/27 02:19:27;;;;;;;9.55;2.88;;;18.40;83.90;;;;;;5032377;28;20034;-77
2021/09/27 02:21:57;;;;;;;8.02;2.97;;;18.40;84.00;;;;;;5036119;28;20468;-78
2021/09/27 02:25:04;;;;;;;8.60;3.13;;;18.40;84.10;;;;;;5039557;28;20021;-78
2021/09/27 02:27:30;;;;;;;8.63;2.63;;;18.40;84.00;;;;;;5017225;28;20034;-77
2021/09/27 02:29:56;;;;;;;7.95;3.17;;;18.40;84.20;;;;;;5039368;28;20385;-77
2021/09/27 02:32:36;;;;;;;6.38;3.13;;;18.40;84.40;;;;;;5039387;28;20109;-78
2021/09/27 02:35:08;;;;;;;11.73;3.53;;;18.40;84.30;;;;;;5039091;28;20041;-78
2021/09/27 02:37:57;;;;;;;11.80;3.92;;;18.40;84.30;;;;;;5038034;28;20029;-77
2021/09/27 02:40:30;;;;;;;7.80;2.72;;;18.40;84.20;;;;;;5029631;28;20104;-77
2021/09/27 02:43:00;;;;;;;6.72;2.70;;;18.40;84.20;;;;;;5039110;28;20029;-77
2021/09/27 02:45:28;;;;;;;10.80;3.42;;;18.30;84.20;;;;;;5039212;28;20074;-77
2021/09/27 02:48:09;;;;;;;8.65;3.30;;;18.40;84.10;;;;;;5038998;28;20041;-77
2021/09/27 02:50:35;;;;;;;8.77;3.50;;;18.30;84.30;;;;;;5039167;28;20025;-77
2021/09/27 02:53:02;;;;;;;6.30;2.72;;;18.30;84.50;;;;;;5038711;28;20036;-77
2021/09/27 02:55:57;;;;;;;9.27;3.88;;;18.30;84.00;;;;;;5038654;28;20034;-77
2021/09/27 02:58:37;;;;;;;8.45;3.00;;;18.30;84.20;;;;;;5029134;28;20025;-77
2021/09/27 03:01:24;;;;;;;12.20;3.20;;;18.30;84.10;;;;;;5038790;28;20017;-77
2021/09/27 03:04:18;;;;;;;9.05;3.03;;;18.40;84.50;;;;;;5038552;28;20057;-77
2021/09/27 03:06:50;;;;;;;7.47;3.20;;;18.40;84.30;;;;;;5038685;28;20025;-77
2021/09/27 03:09:30;;;;;;;5.63;3.10;;;18.30;84.50;;;;;;5033266;28;20768;-77
2021/09/27 03:12:01;;;;;;;7.18;3.30;;;18.40;84.30;;;;;;5038462;28;20021;-77
2021/09/27 03:15:01;;;;;;;7.88;3.28;;;18.40;84.30;;;;;;5038815;28;20065;-77
2021/09/27 03:17:45;;;;;;;9.95;3.72;;;18.40;84.20;;;;;;5029073;28;20447;-76
2021/09/27 03:20:39;;;;;;;8.38;3.70;;;18.40;84.20;;;;;;5025150;28;20053;-77
2021/09/27 03:23:15;;;;;;;7.72;3.53;;;18.40;84.20;;;;;;5038408;28;20057;-77
2021/09/27 03:26:18;;;;;;;10.85;2.92;;;18.40;84.10;;;;;;5038458;28;20028;-77
2021/09/27 03:29:13;;;;;;;6.78;2.75;;;18.40;84.40;;;;;;5025501;28;20104;-77
2021/09/27 03:32:00;;;;;;;7.07;2.63;;;18.30;84.20;;;;;;5035566;28;20096;-77
2021/09/27 03:34:50;;;;;;;8.23;3.05;;;18.30;83.90;;;;;;5030501;28;20075;-76
2021/09/27 03:37:26;;;;;;;10.32;3.28;;;18.30;84.30;;;;;;5038562;28;20029;-76
2021/09/27 03:40:13;;;;;;;9.75;3.10;;;18.30;84.30;;;;;;5037391;28;20017;-76
2021/09/27 03:43:07;;;;;;;6.13;3.13;;;18.30;84.40;;;;;;5037904;28;20447;-76
2021/09/27 03:46:00;;;;;;;8.77;4.47;;;18.30;84.30;;;;;;5038112;28;20476;-77
2021/09/27 03:48:59;;;;;;;8.80;3.30;;;18.30;84.00;;;;;;5027532;28;20022;-77
2021/09/27 03:51:33;;;;;;;8.55;3.05;;;18.30;84.00;;;;;;5023735;28;20100;-77
2021/09/27 03:54:08;;;;;;;8.63;3.15;;;18.30;83.90;;;;;;5036007;28;20072;-76
2021/09/27 03:56:38;;;;;;;8.18;3.40;;;18.30;84.00;;;;;;5038126;28;20416;-76
2021/09/27 03:59:34;;;;;;;7.53;3.53;;;18.20;84.10;;;;;;5037657;28;20109;-76
2021/09/27 04:02:26;;;;;;;6.22;3.30;;;18.20;84.10;;;;;;5037657;28;20030;-77
2021/09/27 04:04:53;;;;;;;8.85;3.60;;;18.20;84.40;;;;;;5036814;28;20021;-77
2021/09/27 04:07:36;;;;;;;5.63;2.92;;;18.10;84.30;;;;;;5036150;28;20029;-77
2021/09/27 04:10:20;;;;;;;7.22;3.40;;;18.10;84.40;;;;;;5030186;28;20069;-77
2021/09/27 04:13:01;;;;;;;6.50;3.42;;;18.10;84.50;;;;;;5037508;28;20025;-77
2021/09/27 04:15:48;;;;;;;8.77;3.38;;;18.10;84.60;;;;;;5036869;28;20024;-78
2021/09/27 04:18:14;;;;;;;8.63;2.80;;;18.10;84.80;;;;;;5035624;28;20481;-78
2021/09/27 04:20:58;;;;;;;7.15;3.45;;;18.10;84.80;;;;;;5024350;28;20044;-77
2021/09/27 04:23:49;;;;;;;7.78;3.42;;;18.10;85.00;;;;;;5037128;28;20044;-77
2021/09/27 04:26:52;;;;;;;6.95;3.20;;;18.10;85.10;;;;;;5037596;28;20578;-77
2021/09/27 04:29:23;;;;;;;;;;;18.10;85.40;;;;;;5019283;28;20092;-77
2021/09/27 04:31:55;;;;;;;8.15;3.90;;;18.10;86.20;;;;;;5037137;28;19995;-77
2021/09/27 04:34:43;;;;;;;8.38;3.80;;;18.00;86.20;;;;;;5037333;28;20026;-78
2021/09/27 04:37:09;;;;;;;7.10;3.53;;;18.00;86.50;;;;;;5026760;28;20029;-76
2021/09/27 04:39:39;;;;;;;8.27;3.50;;;17.90;86.70;;;;;;5035854;28;20096;-76
2021/09/27 04:42:39;;;;;;;7.43;3.55;;;17.90;87.00;;;;;;5037338;28;20048;-76
2021/09/27 04:45:24;;;;;;;9.57;3.33;;;17.90;87.70;;;;;;5023869;28;20029;-77
2021/09/27 04:48:26;;;;;;;6.47;3.72;;;17.80;87.90;;;;;;5037131;28;20037;-77
2021/09/27 04:50:52;;;;;;;7.28;3.97;;;17.80;87.70;;;;;;5035934;28;20029;-77
2021/09/27 04:53:39;;;;;;;6.80;4.13;;;17.70;88.10;;;;;;5036801;28;20080;-76
2021/09/27 04:56:27;;;;;;;6.18;3.35;;;17.70;88.40;;;;;;5037023;28;20025;-79
2021/09/27 04:59:16;;;;;;;9.88;3.63;;;17.70;88.50;;;;;;5037020;28;20454;-77
2021/09/27 05:02:00;;;;;;;8.55;3.63;;;17.70;88.70;;;;;;5037181;28;20075;-78
2021/09/27 05:04:47;;;;;;;8.40;3.90;;;17.70;88.80;;;;;;5024378;28;20029;-77
2021/09/27 05:07:37;;;;;;;8.63;3.83;;;17.70;89.10;;;;;;5036855;28;20083;-86
2021/09/27 05:10:18;;;;;;;7.53;3.97;;;17.70;89.00;;;;;;5031215;28;20088;-85
2021/09/27 05:12:49;;;;;;;7.88;4.05;;;17.60;88.70;;;;;;5036995;28;20104;-87
2021/09/27 05:15:43;;;;;;;7.43;4.07;;;17.60;89.30;;;;;;5036894;28;20025;-87
2021/09/27 05:18:41;;;;;;;8.23;4.03;;;17.70;89.50;;;;;;5035552;28;20029;-81
2021/09/27 05:21:19;;;;;;;10.60;4.35;;;17.60;89.10;;;;;;5027588;28;20102;-80
2021/09/27 05:23:50;;;;;;;11.52;4.70;;;17.70;90.30;;;;;;5036426;28;20030;-78
2021/09/27 05:26:19;;;;;;;12.50;4.50;;;17.70;89.90;;;;;;5037337;28;20030;-81
2021/09/27 05:28:49;;;;;;;10.57;4.57;;;17.70;90.00;;;;;;5040619;28;20034;-78
2021/09/27 05:31:41;;;;;;;10.80;4.35;;;17.70;90.00;;;;;;5040401;28;20472;-80
2021/09/27 05:34:32;;;;;;;9.53;4.20;;;17.70;90.00;;;;;;5030938;28;20049;-79
2021/09/27 05:37:45;;;;;;;10.65;4.10;;;17.60;90.10;;;;;;5028286;28;20044;-79
2021/09/27 05:40:13;;;;;;;;;;;17.70;90.00;;;;;;5018482;28;20034;-79
2021/09/27 05:43:19;;;;;;;11.30;4.47;;;17.70;90.50;;;;;;5018293;28;20296;-86
2021/09/27 05:46:02;;;;;;;8.88;4.10;;;17.70;90.30;;;;;;5036208;28;20465;-81
2021/09/27 05:48:45;;;;;;;8.23;3.95;;;17.70;90.30;;;;;;5040377;28;20034;-81
2021/09/27 05:51:13;;;;;;;10.27;4.13;;;17.70;90.40;;;;;;5040135;28;20024;-82
2021/09/27 05:53:45;;;;;;;7.63;3.60;;;17.60;90.30;;;;;;5038374;28;20117;-81
2021/09/27 05:56:54;;;;;;;7.28;3.50;;;17.70;90.40;;;;;;5040306;28;20040;-79
2021/09/27 05:59:30;;;;;;;7.38;2.97;;;17.70;90.50;;;;;;5039595;28;20044;-78
2021/09/27 06:02:23;;;;;;;4.85;2.38;;;17.70;91.10;;;;;;5039361;28;20021;-78
2021/09/27 06:05:11;;;;;;;6.25;2.78;;;17.60;91.00;;;;;;5038307;28;20021;-79
2021/09/27 06:07:56;;;;;;;4.72;2.30;;;17.60;90.60;;;;;;5036680;28;20053;-79
2021/09/27 06:10:37;;;;;;;6.38;2.60;;;17.50;90.50;;;;;;5036797;28;20084;-78
2021/09/27 06:13:23;;;;;;;4.95;2.10;;;17.60;91.10;;;;;;5039796;28;20026;-79
2021/09/27 06:15:56;;;;;;;4.35;1.70;;;17.60;91.30;;;;;;5027943;28;20018;-78
2021/09/27 06:18:25;;;;;;;5.90;2.15;;;17.50;91.20;;;;;;5037606;28;20496;-78
2021/09/27 06:20:58;;;;;;;7.00;1.80;;;17.60;91.20;;;;;;5027741;28;20029;-78
2021/09/27 06:23:45;;;;;;;4.38;1.30;;;17.60;91.20;;;;;;5039361;28;20025;-77
2021/09/27 06:26:13;;;;;;;3.47;1.58;;;17.60;91.10;;;;;;5039769;28;20109;-78
2021/09/27 06:28:47;;;;;;;5.40;1.70;;;17.60;91.00;;;;;;5039379;28;20029;-78
2021/09/27 06:31:37;;;;;;;4.30;1.00;;;17.60;90.80;;;;;;5039383;28;20021;-78
2021/09/27 06:34:15;;;;;;;7.32;1.63;;;17.60;90.60;;;;;;5039339;28;20037;-78
2021/09/27 06:36:42;;;;;;;4.97;1.48;;;17.70;90.90;;;;;;5037706;28;20037;-79
2021/09/27 06:39:21;;;;;;;6.25;1.42;;;17.70;90.90;;;;;;5037351;28;20026;-77
2021/09/27 06:41:50;;;;;;;5.93;1.10;;;17.70;90.60;;;;;;5039170;28;20018;-78
2021/09/27 06:44:16;;;;;;;4.20;1.10;;;17.60;89.00;;;;;;5038961;28;20445;-78
2021/09/27 06:46:43;;;;;;;2.47;0.70;;;17.50;86.40;;;;;;5039351;28;20028;-78
2021/09/27 06:49:09;;;;;;;2.80;0.70;;;17.50;85.40;;;;;;5039019;28;20495;-78
2021/09/27 06:51:41;;;;;;;4.75;0.90;;;17.40;85.30;;;;;;5039344;28;20472;-77
2021/09/27 06:54:08;;;;;;;2.90;0.70;;;17.30;84.90;;;;;;5038465;28;20065;-78
2021/09/27 06:56:33;;;;;;;4.20;1.13;;;17.20;85.50;;;;;;5039200;28;20475;-77
2021/09/27 06:58:59;;;;;;;4.38;0.80;;;17.10;85.00;;;;;;5038810;28;20044;-77
2021/09/27 07:01:25;;;;;;;3.15;1.00;;;17.10;84.80;;;;;;5039124;28;20029;-77
2021/09/27 07:03:51;;;;;;;2.75;0.70;;;17.00;85.10;;;;;;5037506;28;20025;-77
2021/09/27 07:06:17;;;;;;;3.88;0.70;;;16.90;84.80;;;;;;5039044;28;20025;-77
2021/09/27 07:08:43;;;;;;;3.85;0.77;;;16.90;84.40;;;;;;5038307;28;20026;-77
2021/09/27 07:11:09;;;;;;;3.05;0.50;;;16.80;83.80;;;;;;5037438;28;20082;-78
2021/09/27 07:13:35;;;;;;;3.90;1.17;;;16.80;82.80;;;;;;5038551;28;20533;-77
2021/09/27 07:16:00;;;;;;;2.22;0.57;;;16.70;83.00;;;;;;5038798;28;20032;-78
2021/09/27 07:18:26;;;;;;;4.00;0.70;;;16.70;82.50;;;;;;5036793;28;20057;-78
2021/09/27 07:20:52;;;;;;;4.75;0.68;;;16.70;82.60;;;;;;5025754;28;20029;-78
2021/09/27 07:23:18;;;;;;;3.55;0.77;;;16.70;82.60;;;;;;5038196;28;20040;-78
2021/09/27 07:25:44;;;;;;;3.28;0.82;;;16.70;82.10;;;;;;5037105;28;20040;-78
2021/09/27 07:28:10;;;;;;;3.00;0.50;;;16.60;81.60;;;;;;5038417;28;20097;-77
2021/09/27 07:30:37;;;;;;;3.17;0.65;;;16.60;81.40;;;;;;5038573;28;20029;-78
2021/09/27 07:33:03;;;;;;;2.42;0.60;;;16.60;81.70;;;;;;5038093;28;20030;-77
2021/09/27 07:35:30;;;;;;;3.67;0.68;;;16.60;81.50;;;;;;5036983;28;20065;-77
2021/09/27 07:37:57;;;;;;;2.47;0.55;;;16.60;81.00;;;;;;5038005;28;20026;-77
2021/09/27 07:40:31;;;;;;;2.30;0.50;;;16.60;80.20;;;;;;5038219;28;20025;-78
2021/09/27 07:42:57;;;;;;;2.08;0.60;;;16.50;80.00;;;;;;5038081;28;20546;-77
2021/09/27 07:45:25;;;;;;;2.70;0.82;;;16.40;79.70;;;;;;5038542;28;20053;-77
2021/09/27 07:47:51;;;;;;;3.63;0.77;;;16.30;78.80;;;;;;5037915;28;20479;-78
2021/09/27 07:50:17;;;;;;;2.53;0.50;;;16.20;79.20;;;;;;5037402;28;20108;-78
2021/09/27 07:52:44;;;;;;;2.45;0.57;;;16.10;79.60;;;;;;5037676;28;20083;-77
2021/09/27 07:55:11;;;;;;;2.28;0.50;;;16.00;79.80;;;;;;5037612;28;20920;-78
2021/09/27 07:57:37;;;;;;;3.10;0.60;;;15.90;80.00;;;;;;5036478;28;20021;-78
2021/09/27 08:00:06;;;;;;;3.72;0.70;;;15.90;80.30;;;;;;5038028;28;20032;-77
2021/09/27 08:02:32;;;;;;;5.03;0.75;;;15.90;80.90;;;;;;5037720;28;20018;-77
2021/09/27 08:04:58;;;;;;;4.32;0.93;;;16.00;81.20;;;;;;5037806;28;20112;-78
2021/09/27 08:07:24;;;;;;;2.15;0.60;;;16.00;81.10;;;;;;5037427;28;20049;-78
2021/09/27 08:09:50;;;;;;;3.60;0.70;;;16.10;80.10;;;;;;5030292;28;20060;-78
2021/09/27 08:12:16;;;;;;;3.80;0.70;;;16.10;80.10;;;;;;5037408;28;20025;-78
2021/09/27 08:14:42;;;;;;;3.10;0.70;;;16.10;79.40;;;;;;5037544;28;20037;-78
2021/09/27 08:17:08;;;;;;;2.28;0.68;;;16.20;77.20;;;;;;5035479;28;20025;-78
2021/09/27 08:19:37;;;;;;;5.93;0.68;;;16.40;76.50;;;;;;5027049;28;20037;-78
2021/09/27 08:22:05;;;;;;;4.15;0.70;;;16.60;77.30;;;;;;5034437;28;20022;-78
2021/09/27 08:24:31;;;;;;;2.92;0.80;;;17.20;76.40;;;;;;5035774;28;20037;-78
2021/09/27 08:26:56;;;;;;;3.35;0.88;;;18.10;74.50;;;;;;5037259;28;20404;-79
2021/09/27 08:29:22;;;;;;;3.47;0.80;;;19.30;72.80;;;;;;5037854;28;20025;-79
2021/09/27 08:31:48;;;;;;;4.60;0.70;;;20.30;71.20;;;;;;5037276;28;20064;-78
2021/09/27 08:34:16;;;;;;;5.65;0.95;;;21.40;66.80;;;;;;5035765;28;20427;-81
2021/09/27 08:36:42;;;;;;;4.55;1.13;;;22.30;63.30;;;;;;5037206;28;20099;-79
2021/09/27 08:39:08;;;;;;;4.28;0.70;;;22.90;58.80;;;;;;5035508;28;20028;-79
2021/09/27 08:41:49;;;;;;;5.20;0.80;;;23.20;61.40;;;;;;5037140;28;20022;-80
2021/09/27 08:44:41;;;;;;;4.85;0.93;;;23.60;60.60;;;;;;5037139;28;20030;-79
2021/09/27 08:47:15;;;;;;;4.57;0.93;;;24.20;55.40;;;;;;5037180;28;20555;-79
2021/09/27 08:50:05;;;;;;;5.10;1.20;;;24.70;55.70;;;;;;5037089;28;20484;-79
2021/09/27 08:52:35;;;;;;;5.05;0.90;;;25.00;54.50;;;;;;5036918;28;20400;-79
2021/09/27 08:55:04;;;;;;;5.38;1.20;;;25.20;51.60;;;;;;5036844;28;20025;-79
2021/09/27 08:57:43;;;;;;;5.32;1.10;;;25.50;53.20;;;;;;5035691;28;20026;-79
2021/09/27 09:00:33;;;;;;;5.35;1.00;;;25.70;54.20;;;;;;5037286;28;20073;-80
2021/09/27 09:03:05;;;;;;;4.88;0.70;;;26.00;51.70;;;;;;5040347;28;20056;-79
2021/09/27 09:05:49;;;;;;;6.35;1.60;;;26.20;49.60;;;;;;5040921;28;20487;-79
2021/09/27 09:08:36;;;;;;;4.70;1.00;;;26.50;50.60;;;;;;5040745;28;20503;-79
2021/09/27 09:11:17;;;;;;;6.15;1.05;;;26.70;52.20;;;;;;5041047;28;20033;-81
2021/09/27 09:13:52;;;;;;;3.80;1.13;;;27.00;49.20;;;;;;5040994;28;20487;-82
2021/09/27 09:16:21;;;;;;;5.13;1.00;;;27.10;50.30;;;;;;5040956;28;20024;-80
2021/09/27 09:18:54;;;;;;;4.55;0.98;;;27.20;48.60;;;;;;5034974;28;20029;-80
2021/09/27 09:21:34;;;;;;;3.78;0.75;;;27.40;50.00;;;;;;5031744;28;20104;-80
2021/09/27 09:24:12;;;;;;;4.80;0.82;;;27.40;48.30;;;;;;5028166;28;20033;-80
2021/09/27 09:26:43;;;;;;;7.93;1.20;;;27.50;49.30;;;;;;5040701;28;20032;-80
2021/09/27 09:29:11;;;;;;;6.53;1.00;;;27.80;49.40;;;;;;5039552;28;20044;-79
2021/09/27 09:31:50;;;;;;;5.50;1.10;;;27.70;45.40;;;;;;5040501;28;20047;-79
2021/09/27 09:34:19;;;;;;;4.35;0.90;;;27.80;47.40;;;;;;5032870;28;20104;-79
2021/09/27 09:36:51;;;;;;;4.43;1.02;;;27.90;47.70;;;;;;5040285;28;20056;-78
2021/09/27 09:39:31;;;;;;;4.55;0.85;;;28.10;46.70;;;;;;5040010;28;20021;-79
2021/09/27 09:42:03;;;;;;;4.65;1.27;;;28.30;45.40;;;;;;5040669;28;20109;-78
2021/09/27 09:44:45;;;;;;;4.72;0.70;;;28.40;46.70;;;;;;5040249;28;20499;-78
2021/09/27 09:47:24;;;;;;;6.03;1.10;;;28.30;43.80;;;;;;5040537;28;20034;-78
2021/09/27 09:49:52;;;;;;;4.32;0.98;;;28.30;45.30;;;;;;5028315;28;20430;-79
2021/09/27 09:52:26;;;;;;;4.38;0.95;;;28.40;45.30;;;;;;5040019;28;20021;-77
2021/09/27 09:54:55;;;;;;;4.82;0.77;;;28.60;44.20;;;;;;5038713;28;20069;-78
2021/09/27 09:57:27;;;;;;;7.85;0.90;;;28.70;43.70;;;;;;5039932;28;20608;-78
2021/09/27 10:00:08;;;;;;;4.18;0.70;;;28.70;43.00;;;;;;5040193;28;20151;-79
2021/09/27 10:02:40;;;;;;;4.25;0.75;;;28.80;44.90;;;;;;5039929;28;20369;-78
2021/09/27 10:05:19;;;;;;;6.50;1.33;;;28.70;42.90;;;;;;5039987;28;20026;-79
2021/09/27 10:07:49;;;;;;;6.68;1.00;;;28.80;43.70;;;;;;5037400;28;20262;-79
2021/09/27 10:10:35;;;;;;;5.88;0.95;;;28.90;44.60;;;;;;5036159;28;20025;-79
2021/09/27 10:13:05;;;;;;;4.38;0.95;;;28.90;43.10;;;;;;5037553;28;20029;-79
2021/09/27 10:15:33;;;;;;;4.15;0.82;;;28.70;41.50;;;;;;5039901;28;20033;-79
2021/09/27 10:18:24;;;;;;;6.05;1.23;;;28.60;40.50;;;;;;5038961;28;20021;-79
2021/09/27 10:20:56;;;;;;;5.57;1.50;;;28.80;42.70;;;;;;5027819;28;20068;-79
2021/09/27 10:23:33;;;;;;;4.30;0.80;;;28.90;42.00;;;;;;5039326;28;20067;-78
2021/09/27 10:26:25;;;;;;;4.65;0.90;;;28.90;40.60;;;;;;5039795;28;20373;-79
2021/09/27 10:28:54;;;;;;;4.07;1.10;;;28.90;41.70;;;;;;5026902;28;20373;-79
2021/09/27 10:31:23;;;;;;;4.50;0.80;;;29.00;41.60;;;;;;5038134;28;20503;-79
2021/09/27 10:34:18;;;;;;;5.95;1.17;;;29.10;39.80;;;;;;5038010;28;20392;-80
2021/09/27 10:36:56;;;;;;;5.63;1.27;;;28.80;39.20;;;;;;5034529;28;20110;-79
2021/09/27 10:39:23;;;;;;;4.93;1.02;;;28.70;40.80;;;;;;5038828;28;20026;-77
2021/09/27 10:41:49;;;;;;;6.32;1.00;;;28.70;40.40;;;;;;5039394;28;20156;-78
2021/09/27 10:44:24;;;;;;;6.65;1.00;;;28.60;40.00;;;;;;5039132;28;20053;-78
2021/09/27 10:47:02;;;;;;;4.63;0.95;;;28.70;40.30;;;;;;5039419;28;20028;-79
2021/09/27 10:49:44;;;;;;;5.07;1.10;;;28.70;41.00;;;;;;5037797;28;20029;-79
2021/09/27 10:52:13;;;;;;;;;;;28.90;41.90;;;;;;5039626;28;20022;-78
2021/09/27 10:54:54;;;;;;;6.00;1.00;;;29.20;41.40;;;;;;5038757;28;20272;-80
2021/09/27 10:57:24;;;;;;;5.30;1.42;;;29.10;39.90;;;;;;5037847;28;20083;-79
2021/09/27 11:00:01;;;;;;;5.75;1.08;;;28.90;40.90;;;;;;5037709;28;20048;-80
2021/09/27 11:02:34;;;;;;;6.30;1.00;;;29.10;41.80;;;;;;5037535;28;20057;-78
2021/09/27 11:05:21;;;;;;;5.38;1.25;;;29.00;38.70;;;;;;5037723;28;20089;-80
2021/09/27 11:07:53;;;;;;;5.25;1.02;;;28.90;40.20;;;;;;5035467;28;20029;-80
2021/09/27 11:10:29;;;;;;;5.30;1.05;;;28.90;39.90;;;;;;5035474;28;20471;-79
2021/09/27 11:12:56;;;;;;;5.60;1.23;;;28.50;40.10;;;;;;5038731;28;20029;-80
2021/09/27 11:15:51;;;;;;;5.82;1.08;;;28.40;40.70;;;;;;5038549;28;20084;-79
2021/09/27 11:18:29;;;;;;;5.38;1.10;;;28.50;40.80;;;;;;5036893;28;20144;-79
2021/09/27 11:21:16;;;;;;;6.75;0.95;;;28.50;40.90;;;;;;5027409;28;20029;-79
2021/09/27 11:23:43;;;;;;;4.40;1.25;;;28.30;38.90;;;;;;5038076;28;20051;-77
2021/09/27 11:26:18;;;;;;;3.55;0.95;;;28.60;42.20;;;;;;5038671;28;20458;-79
2021/09/27 11:28:59;;;;;;;5.05;1.08;;;28.70;40.10;;;;;;5038314;28;20047;-78
2021/09/27 11:31:34;;;;;;;3.28;0.80;;;28.60;39.30;;;;;;5038352;28;20032;-79
2021/09/27 11:34:38;;;;;;;5.45;1.10;;;28.50;40.80;;;;;;5038273;28;20061;-79
2021/09/27 11:37:18;;;;;;;5.93;1.08;;;28.70;40.10;;;;;;5026710;28;20048;-79
2021/09/27 11:39:50;;;;;;;6.35;1.25;;;28.50;42.00;;;;;;5036848;28;20079;-79
2021/09/27 11:42:21;;;;;;;5.25;1.00;;;28.20;42.20;;;;;;5038206;28;20039;-78
2021/09/27 11:44:58;;;;;;;5.85;1.48;;;28.20;42.70;;;;;;5038034;28;20045;-78
2021/09/27 11:47:43;;;;;;;4.97;1.17;;;28.30;41.70;;;;;;5038119;28;20071;-78
2021/09/27 11:50:44;;;;;;;10.13;1.30;;;28.20;40.20;;;;;;5038167;28;20068;-78
2021/09/27 11:53:29;;;;;;;4.72;1.00;;;28.10;39.50;;;;;;5035956;28;20025;-78
2021/09/27 11:56:08;;;;;;;6.80;1.15;;;28.00;39.10;;;;;;5037823;28;20029;-79
2021/09/27 11:58:51;;;;;;;5.72;1.10;;;28.20;41.00;;;;;;5038133;28;20449;-78
2021/09/27 12:01:48;;;;;;;3.33;0.93;;;27.80;40.30;;;;;;5026388;28;20539;-79
2021/09/27 12:04:38;;;;;;;4.70;1.20;;;27.40;40.20;;;;;;5036351;28;20026;-78
2021/09/27 12:07:11;;;;;;;6.97;1.58;;;27.20;40.10;;;;;;5037629;28;20038;-79
2021/09/27 12:10:02;;;;;;;3.08;0.75;;;27.30;42.30;;;;;;5028809;28;20488;-78
2021/09/27 12:12:36;;;;;;;5.18;0.98;;;27.30;41.10;;;;;;5025270;28;20048;-78
2021/09/27 12:15:04;;;;;;;5.80;0.95;;;27.10;40.10;;;;;;5037495;28;20056;-78
2021/09/27 12:17:33;;;;;;;4.55;0.82;;;27.00;42.10;;;;;;5035781;28;20017;-78
2021/09/27 12:20:11;;;;;;;4.55;1.00;;;27.10;42.20;;;;;;5024330;28;20021;-79
2021/09/27 12:22:51;;;;;;;6.40;1.33;;;27.10;39.90;;;;;;5037856;28;20033;-78
2021/09/27 12:25:27;;;;;;;10.35;1.30;;;27.10;40.80;;;;;;5035987;28;20033;-78
2021/09/27 12:28:13;;;;;;;5.60;0.90;;;27.20;41.60;;;;;;5037663;28;20033;-78
2021/09/27 12:30:53;;;;;;;4.50;0.90;;;27.10;40.50;;;;;;5026522;28;20450;-77
2021/09/27 12:33:26;;;;;;;7.57;1.17;;;27.10;39.80;;;;;;5035960;28;20034;-78
2021/09/27 12:36:16;;;;;;;6.68;0.93;;;26.80;40.10;;;;;;5036899;28;20049;-77
2021/09/27 12:38:48;;;;;;;4.32;1.08;;;26.70;39.20;;;;;;5025288;28;20462;-78
2021/09/27 12:41:14;;;;;;;4.53;1.08;;;26.90;41.90;;;;;;5036994;28;20543;-77
2021/09/27 12:43:40;;;;;;;3.35;0.90;;;27.10;41.30;;;;;;5037450;28;20037;-78
2021/09/27 12:46:16;;;;;;;6.25;1.40;;;27.20;42.30;;;;;;5037164;28;20030;-77
2021/09/27 12:48:49;;;;;;;6.35;1.50;;;26.90;41.00;;;;;;5037402;28;20035;-77
2021/09/27 12:51:25;;;;;;;4.55;1.08;;;26.80;41.40;;;;;;5036982;28;20072;-77
2021/09/27 12:54:20;;;;;;;5.57;1.23;;;26.80;42.20;;;;;;5036644;28;20029;-77
2021/09/27 12:56:46;;;;;;;4.20;1.00;;;26.60;42.60;;;;;;5037392;28;20045;-77
2021/09/27 12:59:18;;;;;;;4.57;1.38;;;26.50;42.40;;;;;;5035639;28;20496;-78
2021/09/27 13:01:58;;;;;;;6.25;2.00;;;26.50;44.10;;;;;;5037138;28;20103;-78
2021/09/27 13:04:31;;;;;;;5.38;1.10;;;26.50;43.80;;;;;;5036995;28;20373;-78
2021/09/27 13:07:15;;;;;;;7.65;1.35;;;26.40;43.40;;;;;;5036853;28;20055;-78
2021/09/27 13:10:09;;;;;;;4.97;1.10;;;26.30;42.70;;;;;;5036482;28;20113;-77
2021/09/27 13:12:38;;;;;;;3.05;0.82;;;26.20;40.50;;;;;;5037228;28;20097;-79
2021/09/27 13:15:16;;;;;;;4.95;1.40;;;26.10;43.10;;;;;;5036740;28;20155;-79
2021/09/27 13:18:12;;;;;;;5.63;1.05;;;26.10;44.00;;;;;;5037162;28;20079;-78
2021/09/27 13:21:03;;;;;;;5.13;1.25;;;26.00;43.00;;;;;;5023668;28;20033;-79
2021/09/27 13:23:40;;;;;;;6.53;0.90;;;25.80;43.20;;;;;;5036492;28;20054;-79
2021/09/27 13:26:19;;;;;;;7.10;1.10;;;25.70;43.50;;;;;;5036877;28;20029;-78
2021/09/27 13:28:52;;;;;;;5.43;1.77;;;25.60;44.10;;;;;;5024066;28;20096;-78
2021/09/27 13:31:31;;;;;;;5.50;1.05;;;25.50;44.60;;;;;;5035723;28;20080;-79
2021/09/27 13:34:04;;;;;;;8.05;1.20;;;25.40;44.60;;;;;;5036805;28;20119;-79
2021/09/27 13:36:41;;;;;;;4.63;1.20;;;25.20;43.90;;;;;;5036527;28;20042;-81